Карточка аэропорта USHH

Внимание!
Информация на этой странице в стадии наполнения.
Если вы не увидели какой-то информации, или заметили неточность - пожалуйста сообщите нам!
Спасибо!
Команда RU-STAFF
Название аэропортаХанты-Мансийск
Название аэропорта (англ.)Khanty-Mansiysk
Превышение141 ft. (43 m.)
Координаты61°1.7039999999999', 69°5.1599999999999'
Высота перехода800m
Эшелон переходаFL050
Коды ответчика5150-5177
Зона ОрВДТюмень РПИ (USTV)
Данные METARUSHH 252030Z 00000MPS 9000 -RA NSC 13/13 Q0995 R06/010060 NOSIG
Проноз погоды (TAF)USHH 251953Z 2521/2621 36003G12MPS 9999 BKN016 TEMPO 2521/2603 1200 SHRA BR SCT004 BKN016CB TEMPO 2603/2618 5000 -TSRA SCT005 BKN016CB BECMG 2615/2616 33003G12MPS TEMPO 2618/2621 1200 SHRA BR BKN002 BKN011CB
NOTAMshow/hide NOTAM
AWOS   TABLE

Информация о ВПП

ВПП Длина ВПП (м.) Покрытие Курс ВПП Частота ILS
062800Асфальтобетон58111.9
242800Асфальтобетон238110.1

Диспетчерские позиции

Позывной Наименование органа УВД Частота
USHH_R_APPХантым-Круг120.4
USHH_TWRХантым-Вышка118.1



Спутниковое изображение